KAFN/AFN METAR and TAF weather

Enter ICAO airport designator
Station Type Date Time Source
KAFN METAR 2019/04/21 22:20 UTC NOAA

KAFN 212220Z AUTO VRB05KT 10SM FEW027 BKN046 OVC065 17/11 A3005 RMK AO2 T01720106


Station Type Date Time Source
KAFN Decoded METAR 2019/04/21 22:20 UTC NOAA

JAFFREY MUNI-SILVER RANCH, NH, United States (KAFN) 42-48N 72-00W 313M
Apr 21, 2019 - 06:20 PM EDT / 2019.04.21 2220 UTC
Wind: Variable at 6 MPH (5 KT):0
Visibility: 10 mile(s):0
Sky conditions: overcast
Temperature: 63.0 F (17.2 C)
Dew Point: 51.1 F (10.6 C)
Relative Humidity: 65%
Pressure (altimeter): 30.05 in. Hg (1017 hPa)
ob: KAFN 212220Z AUTO VRB05KT 10SM FEW027 BKN046 OVC065 17/11 A3005 RMK AO2 T01720106
cycle: 22

Station Type Date Time Source
KAFN TAF UTC NOAA

Error!

Example: see airport list